CW4778 Auckland NZ current weather conditions

sailwx.info

Wind from 082 at 0 knots gusting 5

Air temperature 13.3° C
Dewpoint 12.9° C

Last reported at 2020-May-29 05:08 UTC.
Time now 2020-May-29 06:06 UTC

Location: S 36°52' E 174°44'.
View on Google Maps.

See reports from other nearby stations

  
Tides and Currents Weather Stations Pressure Air Temp Water Temp Dewpoint Dewpoint Depression Visibility Wind Speed Wind Dir Waves Ship Positions
date/time (UTC)wind fromknots sea level pressurealtimeterstation pressurevisibilityair tempwater tempwave heightnotes
2020-May-29 05:08 082 0 gusting 5 13.3
2020-May-29 04:58 108 1 gusting 4 13.3
2020-May-29 04:53 111 2 gusting 7 13.3
2020-May-29 04:48 126 0 gusting 6 13.3
2020-May-29 04:38 096 6 gusting 11 13.3
2020-May-29 04:23 080 5 gusting 10 13.3
2020-May-29 04:18 057 6 gusting 10 13.3
2020-May-29 04:03 068 6 gusting 12 13.3
2020-May-29 03:53 064 7 gusting 13 13.3
2020-May-29 03:43 063 10 gusting 15 13.3
2020-May-29 03:33 057 6 gusting 13 13.3
2020-May-29 03:28 057 7 gusting 13 13.3
2020-May-29 03:18 078 6 gusting 11 13.3
2020-May-29 03:08 041 8 gusting 12 13.3
2020-May-29 03:03 052 6 gusting 11 13.3
2020-May-29 02:58 058 7 gusting 11 13.3
2020-May-29 02:53 061 8 gusting 14 13.3
2020-May-29 02:43 070 6 gusting 13 13.3
2020-May-29 02:33 039 8 gusting 13 13.3
2020-May-29 02:28 050 4 gusting 8 13.3
2020-May-29 02:23 048 5 gusting 11 13.3
2020-May-29 02:18 062 6 gusting 10 13.3
2020-May-29 02:13 046 4 gusting 10 13.3
2020-May-29 02:08 056 6 gusting 11 13.3
2020-May-29 02:03 047 6 gusting 12 13.3
2020-May-29 01:58 046 5 gusting 7 13.3
2020-May-29 01:53 018 7 gusting 13 13.3
2020-May-29 01:48 030 7 gusting 14 13.9
2020-May-29 01:43 033 6 gusting 13 13.9
2020-May-29 01:33 026 10 gusting 15 14.4
2020-May-29 01:28 027 12 gusting 14 14.4
2020-May-29 01:23 024 10 gusting 15 14.4
2020-May-29 01:18 023 10 gusting 13 14.4
2020-May-29 01:08 017 9 gusting 15 15.0
2020-May-29 01:03 036 8 gusting 12 15.0
2020-May-29 00:53 020 7 gusting 14 15.0
2020-May-29 00:48 028 6 gusting 14 15.0
2020-May-29 00:43 027 8 gusting 13 15.0
2020-May-29 00:38 005 8 gusting 14 15.0
2020-May-29 00:33 032 6 gusting 10 15.0
2020-May-29 00:28 025 7 gusting 11 15.0
2020-May-29 00:23 019 8 gusting 13 15.0
2020-May-29 00:18 004 8 gusting 13 15.0
2020-May-29 00:13 019 7 gusting 11 15.0
2020-May-29 00:08 027 7 gusting 17 15.0
2020-May-28 23:58 016 10 gusting 13 15.0
2020-May-28 23:43 031 6 gusting 8 15.6
2020-May-28 23:33 028 7 gusting 10 15.0
2020-May-28 23:18 025 8 gusting 13 15.0
2020-May-28 23:13 018 10 gusting 13 15.0
2020-May-28 23:08 019 8 gusting 13 14.4
2020-May-28 23:03 020 6 gusting 13 14.4
2020-May-28 22:58 034 6 gusting 13 14.4
2020-May-28 22:53 006 6 gusting 10 14.4
2020-May-28 22:48 022 5 gusting 7 14.4
2020-May-28 22:43 007 6 gusting 10 14.4
2020-May-28 22:38 018 7 gusting 12 14.4
2020-May-28 22:33 005 7 gusting 13 14.4
2020-May-28 22:23 008 11 gusting 15 14.4
2020-May-28 22:18 011 10 gusting 17 14.4
2020-May-28 22:08 022 8 gusting 13 15.0
2020-May-28 22:03 020 6 gusting 8 15.0
2020-May-28 21:58 026 7 gusting 12 15.6
2020-May-28 21:53 043 7 gusting 11 15.6
2020-May-28 21:43 032 6 gusting 13 15.6
2020-May-28 21:38 023 5 gusting 11 15.6
2020-May-28 21:33 038 7 gusting 10 15.6
2020-May-28 21:28 050 6 gusting 12 15.6
2020-May-28 21:23 011 4 gusting 7 15.6
2020-May-28 21:18 041 5 gusting 8 15.6
2020-May-28 21:13 027 2 gusting 6 15.6
2020-May-28 21:08 017 3 gusting 7 15.0
2020-May-28 21:03 019 4 gusting 8 15.0
2020-May-28 20:58 014 3 gusting 6 15.0
2020-May-28 20:53 014 4 gusting 6 15.0
2020-May-28 20:38 017 2 gusting 6 14.4
2020-May-28 20:28 042 1 gusting 4 13.9
2020-May-28 20:23 073 0 gusting 2 13.9
2020-May-28 20:18 073 0 gusting 2 13.9
2020-May-28 20:03 055 4 gusting 6 13.9
2020-May-28 19:58 066 1 gusting 4 13.9
2020-May-28 19:53 058 2 gusting 6 13.9
2020-May-28 19:33 037 2 gusting 5 13.3
2020-May-28 19:18 057 3 gusting 6 13.3
2020-May-28 19:13 065 4 gusting 6 13.3
2020-May-28 19:08 088 5 gusting 7 13.3
2020-May-28 19:03 072 3 gusting 7 13.3
2020-May-28 18:53 062 3 gusting 7 13.3
2020-May-28 18:48 079 4 gusting 10 13.3
2020-May-28 18:43 066 3 gusting 7 13.3
2020-May-28 18:38 081 5 gusting 7 13.3
2020-May-28 18:33 077 5 gusting 7 13.3
2020-May-28 18:28 065 4 gusting 7 13.3
2020-May-28 18:18 079 4 gusting 6 13.3
2020-May-28 18:13 082 6 gusting 10 13.3
2020-May-28 18:08 079 4 gusting 10 13.3
2020-May-28 18:03 061 3 gusting 6 13.3
2020-May-28 17:58 084 2 gusting 6 13.3
2020-May-28 17:53 073 2 gusting 7 13.3
2020-May-28 17:48 062 3 gusting 6 13.3
2020-May-28 17:38 079 4 gusting 6 13.3
2020-May-28 17:33 082 3 gusting 7 13.3
2020-May-28 17:28 059 1 gusting 6 13.3
2020-May-28 17:23 067 2 gusting 6 13.3
2020-May-28 17:18 089 2 gusting 6 13.3
2020-May-28 17:08 056 2 gusting 5 13.3
2020-May-28 16:53 043 1 gusting 5 13.3
2020-May-28 16:48 055 2 gusting 6 13.3
2020-May-28 16:43 069 2 gusting 6 13.3
2020-May-28 16:38 076 2 gusting 6 13.3
2020-May-28 16:23 061 3 gusting 6 13.3
2020-May-28 16:13 083 5 gusting 7 13.3
2020-May-28 16:08 086 4 gusting 8 13.3
2020-May-28 16:03 060 5 gusting 6 13.3
2020-May-28 15:58 074 4 gusting 7 13.9
2020-May-28 15:48 089 6 gusting 10 13.9
2020-May-28 15:43 085 2 gusting 6 13.9
2020-May-28 15:38 073 2 gusting 6 13.9
2020-May-28 15:33 042 2 gusting 6 13.9
2020-May-28 15:28 069 2 gusting 5 13.9
2020-May-28 15:23 060 3 gusting 6 14.4
2020-May-28 15:18 038 2 gusting 8 14.4
2020-May-28 15:13 050 6 gusting 8 15.0
2020-May-28 15:08 028 5 gusting 10 14.4
2020-May-28 15:03 029 5 gusting 8 14.4
2020-May-28 14:58 035 3 gusting 7 14.4
2020-May-28 14:53 022 2 gusting 6 14.4
2020-May-28 14:48 010 4 gusting 6 14.4
2020-May-28 14:43 018 4 gusting 6 14.4
2020-May-28 14:38 037 4 gusting 6 14.4
2020-May-28 14:33 038 4 gusting 6 14.4
2020-May-28 14:28 025 4 gusting 6 14.4
2020-May-28 14:23 013 5 gusting 6 14.4
2020-May-28 14:18 028 4 gusting 8 14.4
2020-May-28 14:13 019 5 gusting 8 14.4
2020-May-28 14:08 022 5 gusting 8 14.4
2020-May-28 14:03 025 4 gusting 7 14.4
2020-May-28 13:58 014 5 gusting 7 14.4
2020-May-28 13:48 033 4 gusting 7 14.4
2020-May-28 13:43 012 5 gusting 6 14.4
2020-May-28 13:38 022 2 gusting 6 13.9
2020-May-28 13:33 013 3 gusting 5 13.9
2020-May-28 13:28 017 2 gusting 5 13.9
2020-May-28 13:23 020 2 gusting 5 13.9
2020-May-28 13:18 019 2 gusting 4 13.9
2020-May-28 13:13 022 2 gusting 4 13.9
2020-May-28 13:08 030 1 gusting 4 13.9
2020-May-28 13:03 018 1 gusting 4 13.9
2020-May-28 12:58 018 2 gusting 4 13.9
2020-May-28 12:48 024 1 gusting 4 13.3
2020-May-28 12:38 026 2 gusting 6 13.3
2020-May-28 12:33 026 2 gusting 6 13.9
2020-May-28 12:28 029 2 gusting 5 13.9
2020-May-28 12:23 020 2 gusting 6 13.9
2020-May-28 12:18 019 2 gusting 5 13.3
2020-May-28 12:13 033 2 gusting 6 13.9
2020-May-28 12:08 019 2 gusting 6 13.9
2020-May-28 12:03 012 4 gusting 7 13.9
2020-May-28 11:53 025 4 gusting 6 13.9
2020-May-28 11:48 006 4 gusting 7 13.9
2020-May-28 11:38 021 0 gusting 2 13.3
2020-May-28 11:33 019 2 gusting 6 13.3
2020-May-28 11:28 026 2 gusting 4 13.3
2020-May-28 11:23 053 0 gusting 2 13.3
2020-May-28 11:18 054 2 gusting 4 13.9
2020-May-28 11:13 063 0 gusting 2 13.9
2020-May-28 11:08 064 1 gusting 6 13.9
2020-May-28 10:58 077 4 gusting 7 13.9
2020-May-28 10:53 031 1 gusting 4 13.9
2020-May-28 10:48 030 2 gusting 6 13.9
2020-May-28 10:43 046 3 gusting 6 13.9
2020-May-28 10:33 027 1 gusting 4 13.9
2020-May-28 10:28 052 3 gusting 5 13.9
2020-May-28 10:23 045 3 gusting 6 13.9
2020-May-28 10:18 045 3 gusting 6 13.9
2020-May-28 10:13 053 2 gusting 5 13.9
2020-May-28 10:03 009 2 gusting 5 13.3
2020-May-28 09:53 063 1 gusting 2 12.8
2020-May-28 09:48 068 0 gusting 2 13.3
2020-May-28 09:38 083 0 gusting 2 13.3
2020-May-28 09:23 067 1 gusting 4 13.3
2020-May-28 09:18 090 2 gusting 6 13.9
2020-May-28 09:13 051 2 gusting 5 13.9
2020-May-28 09:08 059 2 gusting 6 13.9
2020-May-28 09:03 048 2 gusting 5 13.9
2020-May-28 08:58 044 2 gusting 5 13.9
2020-May-28 08:53 055 3 gusting 6 13.9
2020-May-28 08:43 069 4 gusting 6 13.9
2020-May-28 08:38 053 5 gusting 7 13.9
2020-May-28 08:33 070 5 gusting 7 13.9
2020-May-28 08:28 058 5 gusting 7 13.9
2020-May-28 08:23 075 5 gusting 8 13.9
2020-May-28 08:18 074 4 gusting 6 13.9
2020-May-28 08:13 047 5 gusting 8 13.9
2020-May-28 08:08 052 5 gusting 7 13.9
2020-May-28 08:03 048 3 gusting 7 13.9
2020-May-28 07:58 058 5 gusting 8 13.9
2020-May-28 07:53 076 4 gusting 7 13.9
2020-May-28 07:48 058 3 gusting 6 13.9
2020-May-28 07:43 051 3 gusting 6 13.9
2020-May-28 07:18 050 4 gusting 7 13.9
2020-May-28 07:08 057 3 gusting 7 14.4
2020-May-28 06:58 056 6 gusting 12 14.4
2020-May-28 06:53 021 5 gusting 10 14.4
2020-May-28 06:48 047 5 gusting 10 14.4
2020-May-28 06:43 037 4 gusting 6 14.4
2020-May-28 06:38 041 3 gusting 7 14.4
2020-May-28 06:33 042 5 gusting 10 14.4
2020-May-28 06:23 056 6 gusting 11 14.4
2020-May-28 06:13 059 4 gusting 11 13.9
2020-May-28 06:08 055 4 gusting 8 14.4
2020-May-28 06:03 059 6 gusting 10 14.4
2020-May-28 05:58 037 4 gusting 6 14.4
2020-May-28 05:53 056 4 gusting 7 13.9
2020-May-28 05:33 043 3 gusting 6 13.9
2020-May-28 05:28 046 4 gusting 7 13.9
2020-May-28 05:18 067 5 gusting 10 13.9
2020-May-28 05:13 046 5 gusting 8 13.9
2020-May-28 05:08 039 5 gusting 8 13.9
2020-May-28 05:03 048 5 gusting 8 14.4
2020-May-28 04:58 032 4 gusting 8 14.4
2020-May-28 04:53 047 4 gusting 7 14.4
2020-May-28 04:48 037 4 gusting 8 14.4
2020-May-28 04:38 066 6 gusting 8 15.0
2020-May-28 04:33 065 5 gusting 7 15.0
2020-May-28 04:28 062 3 gusting 6 15.0
2020-May-28 04:18 049 4 gusting 8 15.0
2020-May-28 04:03 023 4 gusting 11 15.0
2020-May-28 03:53 026 4 gusting 7 15.6
2020-May-28 03:43 047 2 gusting 6 15.6
2020-May-28 03:38 083 5 gusting 10 15.6
2020-May-28 03:33 043 4 gusting 11 15.6
2020-May-28 03:23 059 2 gusting 6 15.6
2020-May-28 03:18 055 5 gusting 8 15.6
2020-May-28 02:58 074 4 gusting 10 15.6
2020-May-28 02:53 060 6 gusting 11 15.6
2020-May-28 02:48 066 6 gusting 11 15.6
2020-May-28 02:38 058 7 gusting 14 15.6
2020-May-28 02:33 066 5 gusting 10 15.6
2020-May-28 02:28 069 6 gusting 13 16.1
2020-May-28 02:23 077 6 gusting 13 16.1
2020-May-28 02:18 024 6 gusting 10 16.1
2020-May-28 01:58 035 5 gusting 7 16.1
2020-May-28 01:53 020 5 gusting 10 16.1
2020-May-28 01:43 071 5 gusting 13 16.7
2020-May-28 01:38 050 7 gusting 12 16.7
2020-May-28 01:28 038 5 gusting 10 16.7
2020-May-28 01:23 055 7 gusting 10 16.7
2020-May-28 01:18 043 4 gusting 8 16.7
2020-May-28 01:13 065 6 gusting 8 16.7
2020-May-28 01:08 035 4 gusting 7 16.7
2020-May-28 01:03 069 6 gusting 10 16.1
2020-May-28 00:48 036 5 gusting 7 16.7
2020-May-28 00:38 020 4 gusting 7 16.7
2020-May-28 00:33 048 5 gusting 8 16.7
2020-May-28 00:28 074 5 gusting 10 16.7
2020-May-28 00:23 062 5 gusting 10 16.7
2020-May-28 00:18 065 5 gusting 10 16.7
2020-May-28 00:08 055 4 gusting 10 17.2
2020-May-28 00:03 044 4 gusting 6 16.7
2020-May-27 23:58 073 5 gusting 8 16.7
2020-May-27 23:48 037 5 gusting 13 16.7
2020-May-27 23:43 066 5 gusting 11 16.7
2020-May-27 23:38 078 5 gusting 11 16.7
2020-May-27 23:33 039 6 gusting 10 16.7
2020-May-27 23:28 062 7 gusting 12 16.7
2020-May-27 23:23 048 6 gusting 11 16.7
2020-May-27 23:18 106 5 gusting 10 16.7
2020-May-27 23:13 113 7 gusting 10 16.7
2020-May-27 23:08 024 4 gusting 7 16.7
2020-May-27 23:03 069 5 gusting 7 16.1
2020-May-27 22:58 054 3 gusting 7 17.2
2020-May-27 22:53 019 4 gusting 7 16.7
2020-May-27 22:48 017 2 gusting 6 16.1
2020-May-27 22:33 073 3 gusting 6 15.6
2020-May-27 22:28 051 2 gusting 5 15.0
2020-May-27 22:23 060 2 gusting 5 15.0
2020-May-27 22:18 056 4 gusting 6 14.4
2020-May-27 22:13 089 2 gusting 6 14.4
2020-May-27 22:03 127 13.9
2020-May-27 21:58 136 0 gusting 2 13.9
2020-May-27 21:53 154 13.9
2020-May-27 21:48 154 1 gusting 4 13.3
2020-May-27 21:43 153 0 gusting 2 13.3
2020-May-27 21:38 153 0 gusting 4 13.9
2020-May-27 21:28 144 1 gusting 2 13.3
2020-May-27 21:23 159 2 gusting 4 12.8
2020-May-27 21:18 147 2 gusting 4 12.8
2020-May-27 21:08 164 1 gusting 4 12.2
2020-May-27 21:03 163 1 gusting 4 11.7
2020-May-27 20:58 173 2 gusting 5 11.7
2020-May-27 20:53 159 1 gusting 4 11.7
2020-May-27 20:33 157 1 gusting 2 11.1
2020-May-27 20:28 158 2 gusting 4 11.1
2020-May-27 20:23 169 2 gusting 2 11.1
2020-May-27 20:18 166 2 gusting 4 10.6
2020-May-27 20:13 166 1 gusting 2 10.6
2020-May-27 20:08 163 2 gusting 4 10.6
2020-May-27 19:58 159 0 gusting 2 10.6
2020-May-27 19:53 157 0 gusting 2 10.6
2020-May-27 19:48 156 1 gusting 2 10.6
2020-May-27 19:43 158 1 gusting 4 10.6
2020-May-27 19:18 162 1 gusting 2 10.0
2020-May-27 19:08 160 0 gusting 1 10.0
2020-May-27 19:03 161 0 gusting 1 10.0
2020-May-27 18:58 161 1 gusting 2 10.0
2020-May-27 18:53 165 2 gusting 4 10.6
2020-May-27 18:48 156 1 gusting 4 10.6
2020-May-27 18:43 157 1 gusting 4 10.0
2020-May-27 18:38 156 1 gusting 2 10.0
2020-May-27 18:33 155 0 gusting 2 10.0
2020-May-27 18:28 155 1 gusting 4 10.6
2020-May-27 18:23 151 1 gusting 4 10.6
2020-May-27 18:18 165 1 gusting 4 10.6
2020-May-27 18:13 168 1 gusting 2 10.6
2020-May-27 18:03 156 1 gusting 2 10.6
2020-May-27 17:48 162 1 gusting 2 10.6
2020-May-27 17:43 166 1 gusting 2 10.6
2020-May-27 17:38 165 10.6
2020-May-27 17:28 166 0 gusting 4 11.1
2020-May-27 17:18 166 11.1
2020-May-27 17:13 195 1 gusting 5 11.1
2020-May-27 17:08 194 2 gusting 5 11.1
2020-May-27 16:58 154 1 gusting 2 11.1
2020-May-27 16:48 154 0 gusting 1 11.1
2020-May-27 16:28 147 0 gusting 2 11.1
2020-May-27 16:23 150 11.1
2020-May-27 16:13 151 11.1
2020-May-27 16:08 152 11.1
2020-May-27 16:03 152 0 gusting 1 11.1
2020-May-27 15:58 151 11.1
2020-May-27 15:53 151 0 gusting 2 11.1
2020-May-27 15:48 159 1 gusting 2 11.1
2020-May-27 15:43 159 0 gusting 2 11.1
2020-May-27 15:38 160 1 gusting 4 11.1
2020-May-27 15:28 157 1 gusting 4 11.1
2020-May-27 15:18 155 1 gusting 5 11.1
2020-May-27 15:08 169 1 gusting 4 10.6
2020-May-27 14:58 161 0 gusting 1 11.1
2020-May-27 14:53 160 11.1
2020-May-27 14:48 159 1 gusting 1 11.1
2020-May-27 14:38 161 2 gusting 4 11.1
2020-May-27 14:33 153 1 gusting 2 11.1
2020-May-27 14:28 152 0 gusting 2 11.1
2020-May-27 14:18 152 0 gusting 1 10.6
2020-May-27 14:13 150 0 gusting 2 11.1
2020-May-27 14:08 155 0 gusting 4 11.1
2020-May-27 14:03 157 2 gusting 4 11.1
2020-May-27 13:58 160 2 gusting 4 11.1
2020-May-27 13:48 163 4 gusting 5 10.6
2020-May-27 13:38 151 2 gusting 6 10.6
2020-May-27 13:33 143 4 gusting 6 10.6
2020-May-27 13:28 142 4 gusting 7 10.6
2020-May-27 13:18 144 4 gusting 8 11.1
2020-May-27 13:13 122 4 gusting 6 11.1
2020-May-27 13:08 162 3 gusting 5 11.1
2020-May-27 13:03 159 3 gusting 6 11.1
2020-May-27 12:58 159 5 gusting 6 11.1
2020-May-27 12:48 171 4 gusting 6 10.6
2020-May-27 12:43 161 4 gusting 6 10.6
2020-May-27 12:38 147 3 gusting 5 10.6
2020-May-27 12:33 166 2 gusting 5 10.6
2020-May-27 12:28 162 2 gusting 5 10.6
2020-May-27 12:23 155 1 gusting 5 10.6
2020-May-27 12:18 163 4 gusting 6 10.6
2020-May-27 12:13 163 4 gusting 6 10.6
2020-May-27 12:08 165 4 gusting 6 10.6
2020-May-27 11:48 174 2 gusting 4 10.6
2020-May-27 11:43 179 1 gusting 4 10.6
2020-May-27 11:38 167 1 gusting 2 10.6
2020-May-27 11:33 167 1 gusting 4 10.6
2020-May-27 11:18 166 2 gusting 4 10.0
2020-May-27 10:58 180 1 gusting 4 10.0
2020-May-27 10:38 175 3 gusting 5 10.0
2020-May-27 10:33 178 4 gusting 6 10.0
2020-May-27 10:28 168 4 gusting 5 10.0
2020-May-27 10:18 184 4 gusting 6 10.0
2020-May-27 10:03 190 4 gusting 5 10.0
2020-May-27 09:58 198 4 gusting 6 10.0
2020-May-27 09:53 188 4 gusting 6 10.0
2020-May-27 09:48 194 4 gusting 6 10.0
2020-May-27 09:38 159 2 gusting 5 10.0
2020-May-27 09:33 166 4 gusting 6 10.6
2020-May-27 09:28 170 4 gusting 6 10.6
2020-May-27 09:23 181 4 gusting 5 10.6
2020-May-27 09:18 185 4 gusting 6 10.6
2020-May-27 09:13 171 4 gusting 4 10.6
2020-May-27 09:08 175 2 gusting 5 10.6
2020-May-27 08:58 180 0 gusting 1 10.0
2020-May-27 08:53 177 10.6
2020-May-27 08:48 181 1 gusting 2 10.6
2020-May-27 08:43 181 1 gusting 5 10.6
2020-May-27 08:38 153 1 gusting 2 10.6
2020-May-27 08:33 165 0 gusting 2 11.1
2020-May-27 08:18 143 11.1
2020-May-27 08:13 137 11.1
2020-May-27 08:08 118 11.1
2020-May-27 08:03 136 1 gusting 2 11.1
2020-May-27 07:53 118 2 gusting 5 11.1
2020-May-27 07:48 125 4 gusting 6 11.7
2020-May-27 07:38 154 2 gusting 6 11.7
2020-May-27 07:33 154 2 gusting 5 11.7
2020-May-27 07:28 136 2 gusting 6 11.7
2020-May-27 07:23 148 1 gusting 4 11.7
2020-May-27 07:13 176 0 gusting 2 11.7
2020-May-27 07:08 175 1 gusting 2 11.7
2020-May-27 07:03 178 2 gusting 5 11.7
2020-May-27 06:58 172 1 gusting 4 11.7
2020-May-27 06:48 158 1 gusting 5 11.7
2020-May-27 06:43 173 2 gusting 5 11.7
2020-May-27 06:38 162 2 gusting 5 11.7
2020-May-27 06:33 177 2 gusting 5 11.7
2020-May-27 06:23 158 1 gusting 2 11.7
2020-May-27 06:18 156 1 gusting 2 11.7
2020-May-27 06:13 153 1 gusting 5 11.7
2020-May-27 06:08 149 1 gusting 5 11.7
2020-May-27 06:03 153 1 gusting 5 12.2